aviador You're here:

KNBC Decoded Metar

BEAUFORT in SC, USA
Report Time2018-05-23 19:56:00
UTC Time2018-05-23 20:47:13
Flight Rules vfr VFR
Wind160° at 06 kt
W.Decomp.*RWY 18: 5.8 kt HW 1.6 kt LCW
RWY 14: 5.4 kt HW 2.5 kt RCW
RWY 23: 2.5 kt HW 5.4 kt LCW
W.Rank160° ranks 10
Current wind is above 160° avg. (5.4)
Visibility9999 m
Phenomena:N/A
Clouds:Scattered 030 Hf
Scattered 050 Hf
Expected CloudBase > 2,800 ft AGL from Temp-Dew spread
CeilingNone
Temp29°C (ISA +14)
Dew Point22°C (66% RH)
Heat Index32.0°C
QNH1018 hPa
Density Alt1,834 ft
Elevation37 ft
Report Wrong Elevation
Raw Report
KNBC 231956Z 16006KT 10SM SCT030 SCT050 29/22 A3006 RMK AO2 SLP178
T02890222 $=

Extra information for KNBC:More info

Metar Taf Metar & Taf Last 4 Metars F.Rules Stats Wind Profile Meteogram Temp Stats Airport Information Weather charts Add Link Nearby VenuesMetar ALERT Operation Metar Decoded Social comments

AIRNAV info for KNBC